createdAt,value
2018-05-06T00:00:28.795Z,0
2018-05-06T00:01:27.590Z,0
2018-05-06T00:02:27.272Z,0
2018-05-06T00:03:27.153Z,0
2018-05-06T00:04:47.397Z,0
2018-05-06T00:06:08.861Z,0
2018-05-06T00:07:09.027Z,0
2018-05-06T00:08:08.917Z,0
2018-05-06T00:09:30.600Z,0
2018-05-06T00:10:30.173Z,0
2018-05-06T00:11:30.066Z,0
2018-05-06T00:12:29.769Z,0
2018-05-06T00:13:30.827Z,0
2018-05-06T00:14:30.574Z,0
2018-05-06T00:15:30.678Z,0
2018-05-06T00:16:30.482Z,0
2018-05-06T00:17:30.344Z,0
2018-05-06T00:18:30.504Z,0
2018-05-06T00:19:30.223Z,0
2018-05-06T00:20:30.309Z,0
2018-05-06T00:21:30.304Z,0
2018-05-06T00:22:30.828Z,0
2018-05-06T00:23:31.361Z,0
2018-05-06T00:24:30.121Z,0
2018-05-06T00:25:31.103Z,0
2018-05-06T00:26:30.039Z,0
2018-05-06T00:27:31.019Z,0
2018-05-06T00:28:30.113Z,0
2018-05-06T00:29:30.132Z,0
2018-05-06T00:30:30.106Z,0
2018-05-06T00:31:29.630Z,0
2018-05-06T00:32:30.586Z,0
2018-05-06T00:33:30.403Z,0
2018-05-06T00:34:30.340Z,0
2018-05-06T00:35:29.988Z,0
2018-05-06T00:36:29.705Z,0
2018-05-06T00:37:30.715Z,0
2018-05-06T00:38:30.454Z,0
2018-05-06T00:39:29.973Z,0
2018-05-06T00:40:30.190Z,0
2018-05-06T00:41:29.753Z,0
2018-05-06T00:42:30.400Z,0
2018-05-06T00:43:30.412Z,0
2018-05-06T00:44:30.374Z,0
2018-05-06T00:45:30.041Z,0
2018-05-06T00:46:29.856Z,0
2018-05-06T00:47:51.386Z,0
2018-05-06T00:48:51.883Z,0
2018-05-06T00:49:51.645Z,0
2018-05-06T00:50:51.382Z,0
2018-05-06T00:51:52.245Z,0
2018-05-06T00:52:51.830Z,0
2018-05-06T00:53:51.940Z,0
2018-05-06T00:54:51.993Z,0
2018-05-06T00:55:51.877Z,0
2018-05-06T00:56:51.426Z,0
2018-05-06T00:57:52.189Z,0
2018-05-06T00:58:51.681Z,0
2018-05-06T00:59:51.487Z,0
2018-05-06T01:00:51.323Z,0
2018-05-06T01:02:12.410Z,0
2018-05-06T01:03:12.998Z,0
2018-05-06T01:04:12.620Z,0
2018-05-06T01:05:13.898Z,0
2018-05-06T01:06:32.734Z,0
2018-05-06T01:07:33.865Z,0
2018-05-06T01:08:34.028Z,0
2018-05-06T01:09:56.494Z,0
2018-05-06T01:10:57.222Z,0
2018-05-06T01:12:17.294Z,0
2018-05-06T01:13:18.596Z,0
2018-05-06T01:14:18.430Z,0
2018-05-06T01:15:18.310Z,0
2018-05-06T01:16:17.893Z,0
2018-05-06T01:17:17.799Z,0
2018-05-06T01:18:38.637Z,0
2018-05-06T01:19:38.741Z,0
2018-05-06T01:20:38.142Z,0
2018-05-06T01:21:39.182Z,0
2018-05-06T01:22:38.666Z,0
2018-05-06T01:23:38.850Z,0
2018-05-06T01:24:58.591Z,0
2018-05-06T01:25:59.748Z,0
2018-05-06T01:26:59.595Z,0
2018-05-06T01:27:59.465Z,0
2018-05-06T01:28:59.314Z,0
2018-05-06T01:29:59.250Z,0
2018-05-06T01:30:58.951Z,0
2018-05-06T01:31:59.889Z,0
2018-05-06T01:32:59.662Z,0
2018-05-06T01:33:59.807Z,0
2018-05-06T01:34:59.726Z,0
2018-05-06T01:35:59.350Z,0
2018-05-06T01:36:58.801Z,0
2018-05-06T01:37:59.849Z,0
2018-05-06T01:38:59.915Z,0
2018-05-06T01:39:59.656Z,0
2018-05-06T01:40:59.513Z,0
2018-05-06T01:41:59.216Z,0
2018-05-06T01:42:59.158Z,0
2018-05-06T01:44:19.450Z,0
2018-05-06T01:45:40.590Z,0
2018-05-06T01:47:01.421Z,0
2018-05-06T01:48:02.280Z,0
2018-05-06T01:49:02.044Z,0
2018-05-06T01:50:01.942Z,0
2018-05-06T01:51:02.050Z,0
2018-05-06T01:52:01.999Z,0
2018-05-06T01:53:01.522Z,0
2018-05-06T01:54:22.329Z,0
2018-05-06T01:55:23.252Z,0
2018-05-06T01:56:23.142Z,0
2018-05-06T01:58:03.649Z,0
2018-05-06T01:59:04.441Z,0
2018-05-06T02:00:04.052Z,0
2018-05-06T02:01:03.780Z,0
2018-05-06T02:02:04.532Z,0
2018-05-06T02:03:04.154Z,0
2018-05-06T02:04:24.358Z,0
2018-05-06T02:05:45.627Z,0
2018-05-06T02:06:46.236Z,0
2018-05-06T02:07:45.858Z,0
2018-05-06T02:08:45.441Z,0
2018-05-06T02:09:46.103Z,0
2018-05-06T02:10:46.072Z,0
2018-05-06T02:11:45.752Z,0
2018-05-06T02:12:46.623Z,0
2018-05-06T02:13:46.397Z,0
2018-05-06T02:14:46.350Z,0
2018-05-06T02:15:46.287Z,0
2018-05-06T02:16:46.186Z,0
2018-05-06T02:18:06.430Z,0
2018-05-06T02:19:06.926Z,0
2018-05-06T02:20:06.417Z,0
2018-05-06T02:22:08.210Z,0
2018-05-06T02:23:29.407Z,0
2018-05-06T02:24:30.373Z,0
2018-05-06T02:25:30.947Z,0
2018-05-06T02:26:29.511Z,0
2018-05-06T02:27:29.173Z,0
2018-05-06T02:28:29.658Z,0
2018-05-06T02:29:29.455Z,0
2018-05-06T02:30:30.349Z,0
2018-05-06T02:31:30.281Z,0
2018-05-06T02:32:29.826Z,0
2018-05-06T02:33:49.835Z,0
2018-05-06T02:34:50.719Z,0
2018-05-06T02:35:50.149Z,0
2018-05-06T02:36:50.927Z,0
2018-05-06T02:37:50.784Z,0
2018-05-06T02:38:50.164Z,0
2018-05-06T02:39:50.672Z,0
2018-05-06T02:40:50.095Z,0
2018-05-06T02:41:51.167Z,0
2018-05-06T02:42:50.653Z,0
2018-05-06T02:43:50.677Z,0
2018-05-06T02:44:50.609Z,0
2018-05-06T02:45:50.095Z,0
2018-05-06T02:46:50.624Z,0
2018-05-06T02:47:50.864Z,0
2018-05-06T02:48:50.481Z,0
2018-05-06T02:49:50.482Z,0
2018-05-06T02:50:50.107Z,0
2018-05-06T02:51:50.566Z,0
2018-05-06T02:52:49.957Z,0
2018-05-06T02:53:50.433Z,0
2018-05-06T02:54:50.340Z,0
2018-05-06T02:56:51.182Z,0
2018-05-06T02:57:51.687Z,0
2018-05-06T02:58:51.240Z,0
2018-05-06T02:59:52.096Z,0
2018-05-06T03:00:51.639Z,0
2018-05-06T03:01:51.131Z,0
2018-05-06T03:02:51.536Z,0
2018-05-06T03:03:51.134Z,0
2018-05-06T03:04:51.630Z,0
2018-05-06T03:05:51.252Z,0
2018-05-06T03:06:51.743Z,0
2018-05-06T03:07:51.472Z,0
2018-05-06T03:09:11.801Z,0
2018-05-06T03:10:12.661Z,0
2018-05-06T03:11:12.668Z,0
2018-05-06T03:12:12.599Z,0
2018-05-06T03:13:12.506Z,0
2018-05-06T03:14:33.551Z,0
2018-05-06T03:15:33.318Z,0
2018-05-06T03:16:33.484Z,0
2018-05-06T03:17:33.476Z,0
2018-05-06T03:18:33.358Z,0
2018-05-06T03:19:33.476Z,0
2018-05-06T03:20:33.353Z,0
2018-05-06T03:21:33.092Z,0
2018-05-06T03:22:33.673Z,0
2018-05-06T03:23:33.887Z,0
2018-05-06T03:24:34.325Z,0
2018-05-06T03:25:33.489Z,0
2018-05-06T03:26:33.637Z,0
2018-05-06T03:27:33.369Z,0
2018-05-06T03:28:33.580Z,0
2018-05-06T03:29:54.417Z,0
2018-05-06T03:30:55.450Z,0
2018-05-06T03:31:54.873Z,0
2018-05-06T03:32:54.473Z,0
2018-05-06T03:34:15.588Z,1
2018-05-06T03:35:15.979Z,1
2018-05-06T03:36:15.954Z,1
2018-05-06T03:37:15.670Z,1
2018-05-06T03:38:16.255Z,1
2018-05-06T03:39:16.225Z,1
2018-05-06T03:40:15.701Z,1
2018-05-06T03:41:16.361Z,2
2018-05-06T03:42:16.336Z,2
2018-05-06T03:43:15.901Z,2
2018-05-06T03:44:16.932Z,2
2018-05-06T03:45:15.698Z,2
2018-05-06T03:46:16.748Z,3
2018-05-06T03:47:16.265Z,3
2018-05-06T03:48:15.794Z,3
2018-05-06T03:49:16.507Z,3
2018-05-06T03:50:16.040Z,4
2018-05-06T03:51:15.712Z,4
2018-05-06T03:52:16.364Z,4
2018-05-06T03:53:56.860Z,5
2018-05-06T03:54:57.382Z,5
2018-05-06T03:56:07.041Z,6
2018-05-06T03:56:57.857Z,6
2018-05-06T03:57:57.420Z,6
2018-05-06T03:58:56.946Z,7
2018-05-06T03:59:57.642Z,7
2018-05-06T04:00:57.754Z,7
2018-05-06T04:01:57.759Z,8
2018-05-06T04:02:57.353Z,8
2018-05-06T04:03:57.081Z,9
2018-05-06T04:05:20.994Z,9
2018-05-06T04:06:20.578Z,10
2018-05-06T04:07:21.120Z,10
2018-05-06T04:08:41.191Z,11
2018-05-06T04:09:42.440Z,11
2018-05-06T04:10:42.271Z,11
2018-05-06T04:11:41.906Z,12
2018-05-06T04:12:58.196Z,12
2018-05-06T04:13:59.104Z,13
2018-05-06T04:14:58.730Z,13
2018-05-06T04:15:58.712Z,14
2018-05-06T04:16:58.265Z,14
2018-05-06T04:18:19.621Z,15
2018-05-06T04:19:20.609Z,15
2018-05-06T04:20:20.201Z,15
2018-05-06T04:21:20.008Z,16
2018-05-06T04:22:19.806Z,16
2018-05-06T04:23:20.540Z,17
2018-05-06T04:24:20.568Z,17
2018-05-06T04:25:20.179Z,18
2018-05-06T04:26:19.902Z,18
2018-05-06T04:27:20.906Z,18
2018-05-06T04:28:20.868Z,19
2018-05-06T04:29:19.630Z,19
2018-05-06T04:30:20.617Z,20
2018-05-06T04:31:20.434Z,20
2018-05-06T04:32:20.558Z,20
2018-05-06T04:33:20.566Z,21
2018-05-06T04:34:20.601Z,27
2018-05-06T04:35:41.511Z,38
2018-05-06T04:36:41.361Z,34
2018-05-06T04:37:42.456Z,30
2018-05-06T04:38:41.672Z,30
2018-05-06T04:39:41.370Z,33
2018-05-06T04:40:42.015Z,29
2018-05-06T04:41:41.697Z,29
2018-05-06T04:42:41.363Z,31
2018-05-06T04:43:42.069Z,41
2018-05-06T04:44:42.007Z,42
2018-05-06T04:45:41.862Z,30
2018-05-06T04:46:42.174Z,27
2018-05-06T04:47:41.872Z,26
2018-05-06T04:48:42.061Z,27
2018-05-06T04:49:41.733Z,27
2018-05-06T04:51:22.524Z,28
2018-05-06T04:52:22.803Z,30
2018-05-06T04:53:22.909Z,31
2018-05-06T04:54:43.407Z,29
2018-05-06T04:55:44.294Z,31
2018-05-06T04:56:44.874Z,32
2018-05-06T04:57:43.474Z,32
2018-05-06T04:58:44.196Z,32
2018-05-06T04:59:43.780Z,31
2018-05-06T05:00:45.310Z,32
2018-05-06T05:01:44.354Z,31
2018-05-06T05:02:44.564Z,31
2018-05-06T05:04:04.682Z,32
2018-05-06T05:05:05.853Z,32
2018-05-06T05:06:05.656Z,33
2018-05-06T05:07:06.732Z,34
2018-05-06T05:08:05.332Z,34
2018-05-06T05:09:05.258Z,33
2018-05-06T05:10:04.855Z,35
2018-05-06T05:11:05.945Z,37
2018-05-06T05:12:05.060Z,36
2018-05-06T05:13:04.755Z,36
2018-05-06T05:14:05.870Z,37
2018-05-06T05:15:05.788Z,39
2018-05-06T05:16:05.445Z,44
2018-05-06T05:17:05.485Z,43
2018-05-06T05:18:05.403Z,36
2018-05-06T05:19:05.608Z,36
2018-05-06T05:20:05.254Z,37
2018-05-06T05:21:05.057Z,37
2018-05-06T05:22:04.853Z,38
2018-05-06T05:23:06.025Z,49
2018-05-06T05:24:05.168Z,78
2018-05-06T05:25:05.288Z,99
2018-05-06T05:26:05.015Z,107
2018-05-06T05:27:05.097Z,122
2018-05-06T05:28:05.177Z,131
2018-05-06T05:29:05.180Z,133
2018-05-06T05:30:05.322Z,141
2018-05-06T05:31:05.471Z,147
2018-05-06T05:32:05.564Z,147
2018-05-06T05:33:05.589Z,154
2018-05-06T05:34:05.842Z,158
2018-05-06T05:35:05.655Z,157
2018-05-06T05:36:05.521Z,158
2018-05-06T05:37:05.204Z,159
2018-05-06T05:38:04.975Z,161
2018-05-06T05:39:05.066Z,168
2018-05-06T05:40:04.753Z,176
2018-05-06T05:41:05.898Z,177
2018-05-06T05:42:46.745Z,184
2018-05-06T05:43:46.810Z,196
2018-05-06T05:44:46.595Z,200
2018-05-06T05:45:47.182Z,196
2018-05-06T05:46:47.233Z,197
2018-05-06T05:47:46.925Z,196
2018-05-06T05:48:46.621Z,188
2018-05-06T05:49:47.289Z,194
2018-05-06T05:50:47.424Z,205
2018-05-06T05:52:08.682Z,200
2018-05-06T05:53:09.044Z,205
2018-05-06T05:54:09.017Z,210
2018-05-06T05:55:09.226Z,217
2018-05-06T05:56:29.575Z,221
2018-05-06T05:57:30.874Z,222
2018-05-06T05:58:50.576Z,229
2018-05-06T05:59:51.373Z,220
2018-05-06T06:00:51.429Z,199
2018-05-06T06:01:51.596Z,200
2018-05-06T06:02:51.436Z,216
2018-05-06T06:03:51.220Z,226
2018-05-06T06:04:51.888Z,232
2018-05-06T06:05:50.670Z,237
2018-05-06T06:06:51.604Z,239
2018-05-06T06:08:11.751Z,226
2018-05-06T06:09:12.942Z,239
2018-05-06T06:10:12.159Z,237
2018-05-06T06:11:13.019Z,244
2018-05-06T06:12:12.195Z,245
2018-05-06T06:13:12.321Z,239
2018-05-06T06:14:33.757Z,231
2018-05-06T06:15:34.056Z,234
2018-05-06T06:16:34.028Z,234
2018-05-06T06:17:35.143Z,254
2018-05-06T06:18:34.535Z,255
2018-05-06T06:19:33.943Z,252
2018-05-06T06:20:34.233Z,262
2018-05-06T06:21:34.969Z,266
2018-05-06T06:22:34.483Z,272
2018-05-06T06:23:33.812Z,285
2018-05-06T06:24:33.631Z,295
2018-05-06T06:25:33.623Z,288
2018-05-06T06:26:33.719Z,296
2018-05-06T06:27:33.720Z,305
2018-05-06T06:28:33.856Z,304
2018-05-06T06:29:54.660Z,299
2018-05-06T06:30:55.915Z,307
2018-05-06T06:31:54.762Z,307
2018-05-06T06:32:56.102Z,302
2018-05-06T06:33:55.341Z,317
2018-05-06T06:34:55.275Z,302
2018-05-06T06:35:55.459Z,295
2018-05-06T06:36:55.570Z,320
2018-05-06T06:37:55.814Z,326
2018-05-06T06:38:55.260Z,322
2018-05-06T06:39:55.144Z,319
2018-05-06T06:41:16.293Z,329
2018-05-06T06:42:57.613Z,341
2018-05-06T06:43:57.521Z,334
2018-05-06T06:44:57.630Z,320
2018-05-06T06:46:17.934Z,332
2018-05-06T06:47:18.768Z,357
2018-05-06T06:48:20.550Z,357
2018-05-06T06:49:18.799Z,348
2018-05-06T06:50:18.642Z,346
2018-05-06T06:51:39.420Z,352
2018-05-06T06:52:40.273Z,346
2018-05-06T06:53:40.160Z,350
2018-05-06T06:54:39.883Z,364
2018-05-06T06:55:39.760Z,363
2018-05-06T06:57:00.440Z,336
2018-05-06T06:58:21.636Z,345
2018-05-06T06:59:21.537Z,367
2018-05-06T07:00:21.786Z,379
2018-05-06T07:01:21.681Z,373
2018-05-06T07:03:02.966Z,358
2018-05-06T07:04:04.934Z,395
2018-05-06T07:05:03.860Z,394
2018-05-06T07:06:04.174Z,402
2018-05-06T07:07:04.767Z,427
2018-05-06T07:08:03.378Z,405
2018-05-06T07:09:03.387Z,378
2018-05-06T07:10:03.702Z,374
2018-05-06T07:11:03.807Z,371
2018-05-06T07:12:03.698Z,383
2018-05-06T07:13:03.812Z,409
2018-05-06T07:14:03.767Z,417
2018-05-06T07:15:04.137Z,413
2018-05-06T07:16:03.032Z,432
2018-05-06T07:17:05.275Z,427
2018-05-06T07:18:03.400Z,398
2018-05-06T07:19:03.662Z,372
2018-05-06T07:20:03.789Z,385
2018-05-06T07:21:04.057Z,416
2018-05-06T07:22:03.427Z,434
2018-05-06T07:23:23.722Z,432
2018-05-06T07:24:24.628Z,438
2018-05-06T07:25:24.465Z,449
2018-05-06T07:26:24.190Z,461
2018-05-06T07:27:44.741Z,478
2018-05-06T07:28:45.976Z,465
2018-05-06T07:29:44.896Z,452
2018-05-06T07:30:45.162Z,477
2018-05-06T07:31:44.960Z,487
2018-05-06T07:32:45.029Z,477
2018-05-06T07:33:44.890Z,471
2018-05-06T07:34:46.138Z,430
2018-05-06T07:36:27.155Z,443
2018-05-06T07:37:27.392Z,469
2018-05-06T07:38:27.746Z,483
2018-05-06T07:39:28.000Z,492
2018-05-06T07:40:27.892Z,485
2018-05-06T07:41:26.984Z,485
2018-05-06T07:42:27.181Z,474
2018-05-06T07:43:27.480Z,496
2018-05-06T07:44:28.292Z,530
2018-05-06T07:45:27.355Z,516
2018-05-06T07:46:27.763Z,484
2018-05-06T07:47:27.892Z,484
2018-05-06T07:48:48.853Z,500
2018-05-06T07:49:48.863Z,496
2018-05-06T07:50:49.203Z,500
2018-05-06T07:51:49.007Z,517
2018-05-06T07:52:49.305Z,529
2018-05-06T07:53:49.127Z,537
2018-05-06T07:54:48.910Z,535
2018-05-06T07:55:49.225Z,521
2018-05-06T07:56:49.142Z,517
2018-05-06T07:57:49.491Z,525
2018-05-06T07:58:49.431Z,544
2018-05-06T07:59:49.423Z,551
2018-05-06T08:00:49.222Z,546
2018-05-06T08:02:10.054Z,560
2018-05-06T08:03:11.488Z,531
2018-05-06T08:04:10.794Z,525
2018-05-06T08:05:10.718Z,544
2018-05-06T08:06:32.596Z,550
2018-05-06T08:07:32.450Z,537
2018-05-06T08:08:32.651Z,520
2018-05-06T08:09:32.403Z,536
2018-05-06T08:10:32.684Z,542
2018-05-06T08:11:32.447Z,532
2018-05-06T08:12:32.617Z,543
2018-05-06T08:13:31.638Z,564
2018-05-06T08:14:32.965Z,564
2018-05-06T08:15:31.800Z,572
2018-05-06T08:16:32.171Z,582
2018-05-06T08:17:32.534Z,570
2018-05-06T08:18:32.392Z,537
2018-05-06T08:20:35.529Z,585
2018-05-06T08:21:35.600Z,581
2018-05-06T08:22:36.047Z,535
2018-05-06T08:23:57.233Z,562
2018-05-06T08:24:57.004Z,592
2018-05-06T08:26:18.458Z,577
2018-05-06T08:27:19.249Z,578
2018-05-06T08:28:19.207Z,603
2018-05-06T08:29:19.150Z,607
2018-05-06T08:30:19.318Z,600
2018-05-06T08:31:19.501Z,539
2018-05-06T08:32:19.662Z,468
2018-05-06T08:33:18.624Z,455
2018-05-06T08:34:18.491Z,504
2018-05-06T08:35:40.786Z,633
2018-05-06T08:36:41.060Z,628
2018-05-06T08:37:41.017Z,611
2018-05-06T08:38:41.418Z,605
2018-05-06T08:39:41.205Z,615
2018-05-06T08:40:41.601Z,604
2018-05-06T08:41:40.795Z,592
2018-05-06T08:42:41.022Z,607
2018-05-06T08:43:41.280Z,622
2018-05-06T08:44:41.090Z,639
2018-05-06T08:45:41.087Z,622
2018-05-06T08:46:41.386Z,602
2018-05-06T08:47:40.251Z,601
2018-05-06T08:48:41.222Z,618
2018-05-06T08:49:40.726Z,633
2018-05-06T08:50:40.647Z,641
2018-05-06T08:51:40.831Z,646
2018-05-06T08:52:40.871Z,657
2018-05-06T08:53:41.742Z,647
2018-05-06T08:54:41.633Z,612
2018-05-06T08:55:41.113Z,600
2018-05-06T08:56:42.081Z,601
2018-05-06T08:57:42.035Z,600
2018-05-06T08:58:40.935Z,608
2018-05-06T08:59:41.255Z,650
2018-05-06T09:00:40.740Z,672
2018-05-06T09:01:41.065Z,686
2018-05-06T09:02:41.678Z,676
2018-05-06T09:03:40.951Z,688
2018-05-06T09:04:41.272Z,707
2018-05-06T09:05:41.202Z,686
2018-05-06T09:06:42.568Z,600
2018-05-06T09:08:22.812Z,670
2018-05-06T09:09:23.923Z,675
2018-05-06T09:10:24.193Z,654
2018-05-06T09:11:23.400Z,661
2018-05-06T09:12:23.291Z,698
2018-05-06T09:13:23.389Z,709
2018-05-06T09:14:23.339Z,706
2018-05-06T09:15:23.877Z,663
2018-05-06T09:16:23.538Z,667
2018-05-06T09:17:45.514Z,699
2018-05-06T09:18:45.718Z,679
2018-05-06T09:19:48.518Z,671
2018-05-06T09:20:45.528Z,669
2018-05-06T09:22:05.918Z,659
2018-05-06T09:23:06.817Z,656
2018-05-06T09:24:28.463Z,664
2018-05-06T09:25:28.475Z,620
2018-05-06T09:26:28.653Z,531
2018-05-06T09:27:49.044Z,530
2018-05-06T09:29:30.581Z,639
2018-05-06T09:30:31.779Z,710
2018-05-06T09:31:32.150Z,674
2018-05-06T09:32:31.271Z,633
2018-05-06T09:33:32.089Z,634
2018-05-06T09:34:31.367Z,649
2018-05-06T09:35:32.214Z,658
2018-05-06T09:36:31.121Z,658
2018-05-06T09:37:31.359Z,622
2018-05-06T09:38:33.063Z,618
2018-05-06T09:39:31.635Z,677
2018-05-06T09:40:31.067Z,704
2018-05-06T09:41:51.865Z,662
2018-05-06T09:42:52.220Z,702
2018-05-06T09:43:52.443Z,709
2018-05-06T09:44:52.817Z,660
2018-05-06T09:45:53.020Z,659
2018-05-06T09:46:52.420Z,691
2018-05-06T09:47:52.779Z,702
2018-05-06T09:48:52.773Z,683
2018-05-06T09:49:52.670Z,669
2018-05-06T09:50:52.942Z,686
2018-05-06T09:51:52.507Z,691
2018-05-06T09:52:52.517Z,679
2018-05-06T09:53:52.805Z,675
2018-05-06T09:54:52.674Z,687
2018-05-06T09:55:53.345Z,672
2018-05-06T09:56:52.276Z,653
2018-05-06T09:57:52.818Z,655
2018-05-06T09:58:52.736Z,686
2018-05-06T09:59:52.905Z,676
2018-05-06T10:00:52.660Z,664
2018-05-06T10:01:52.915Z,676
2018-05-06T10:02:51.967Z,681
2018-05-06T10:03:51.960Z,663
2018-05-06T10:04:51.789Z,645
2018-05-06T10:05:52.167Z,629
2018-05-06T10:06:52.279Z,626
2018-05-06T10:07:52.775Z,606
2018-05-06T10:08:51.859Z,597
2018-05-06T10:09:52.932Z,612
2018-05-06T10:10:52.751Z,605
2018-05-06T10:12:12.978Z,596
2018-05-06T10:13:13.883Z,621
2018-05-06T10:14:13.295Z,618
2018-05-06T10:15:13.173Z,616
2018-05-06T10:16:13.100Z,637
2018-05-06T10:17:33.864Z,625
2018-05-06T10:18:34.937Z,612
2018-05-06T10:19:33.888Z,594
2018-05-06T10:20:34.009Z,617
2018-05-06T10:21:34.233Z,654
2018-05-06T10:22:34.256Z,662
2018-05-06T10:23:56.973Z,642
2018-05-06T10:24:56.939Z,602
2018-05-06T10:25:57.301Z,557
2018-05-06T10:26:57.627Z,555
2018-05-06T10:27:59.093Z,564
2018-05-06T10:28:58.149Z,561
2018-05-06T10:29:57.439Z,577
2018-05-06T10:31:18.211Z,597
2018-05-06T10:32:41.021Z,601
2018-05-06T10:33:41.236Z,575
2018-05-06T10:34:40.116Z,572
2018-05-06T10:35:40.117Z,594
2018-05-06T10:36:40.183Z,618
2018-05-06T10:37:40.733Z,612
2018-05-06T10:38:40.724Z,567
2018-05-06T10:39:40.984Z,542
2018-05-06T10:40:41.176Z,541
2018-05-06T10:41:41.053Z,568
2018-05-06T10:42:41.409Z,618
2018-05-06T10:43:41.343Z,639
2018-05-06T10:44:42.096Z,642
2018-05-06T10:45:40.901Z,651
2018-05-06T10:46:41.201Z,662
2018-05-06T10:47:40.403Z,657
2018-05-06T10:48:40.785Z,661
2018-05-06T10:49:41.169Z,655
2018-05-06T10:50:40.687Z,647
2018-05-06T10:51:40.707Z,632
2018-05-06T10:52:40.771Z,639
2018-05-06T10:53:40.667Z,656
2018-05-06T10:55:45.091Z,675
2018-05-06T10:56:44.989Z,663
2018-05-06T10:57:45.824Z,680
2018-05-06T10:59:07.366Z,705
2018-05-06T11:00:07.795Z,691
2018-05-06T11:01:07.174Z,664
2018-05-06T11:02:07.418Z,671
2018-05-06T11:03:07.664Z,698
2018-05-06T11:04:07.970Z,696
2018-05-06T11:05:28.042Z,668
2018-05-06T11:06:28.946Z,670
2018-05-06T11:07:28.791Z,656
2018-05-06T11:08:50.331Z,621
2018-05-06T11:09:50.471Z,629
2018-05-06T11:10:49.375Z,641
2018-05-06T11:11:50.600Z,638
2018-05-06T11:13:31.076Z,635
2018-05-06T11:14:51.989Z,636
2018-05-06T11:15:52.075Z,660
2018-05-06T11:16:52.044Z,666
2018-05-06T11:17:52.950Z,696
2018-05-06T11:18:52.370Z,710
2018-05-06T11:19:52.451Z,694
2018-05-06T11:20:52.775Z,656
2018-05-06T11:21:52.224Z,611
2018-05-06T11:22:52.396Z,580
2018-05-06T11:23:52.225Z,591
2018-05-06T11:24:52.419Z,648
2018-05-06T11:25:52.554Z,684
2018-05-06T11:26:52.752Z,705
2018-05-06T11:27:51.597Z,744
2018-05-06T11:28:52.181Z,744
2018-05-06T11:29:52.555Z,706
2018-05-06T11:30:53.921Z,670
2018-05-06T11:31:52.875Z,663
2018-05-06T11:32:51.751Z,671
2018-05-06T11:33:51.610Z,668
2018-05-06T11:34:52.460Z,629
2018-05-06T11:35:52.489Z,620
2018-05-06T11:36:52.334Z,675
2018-05-06T11:37:52.920Z,735
2018-05-06T11:38:51.786Z,738
2018-05-06T11:39:51.744Z,706
2018-05-06T11:40:52.017Z,687
2018-05-06T11:41:57.498Z,708
2018-05-06T11:42:52.204Z,711
2018-05-06T11:43:52.324Z,684
2018-05-06T11:45:21.816Z,669
2018-05-06T11:46:25.257Z,662
2018-05-06T11:47:15.154Z,627
2018-05-06T11:48:15.499Z,611
2018-05-06T11:49:14.871Z,588
2018-05-06T11:50:15.368Z,566
2018-05-06T11:51:14.799Z,588
2018-05-06T11:52:14.899Z,642
2018-05-06T11:53:15.252Z,670
2018-05-06T11:54:14.309Z,703
2018-05-06T11:55:36.495Z,686
2018-05-06T11:56:37.922Z,650
2018-05-06T11:57:37.493Z,564
2018-05-06T11:58:36.660Z,534
2018-05-06T12:00:18.870Z,693
2018-05-06T12:01:19.881Z,703
2018-05-06T12:02:39.920Z,721
2018-05-06T12:03:40.486Z,764
2018-05-06T12:04:40.893Z,761
2018-05-06T12:05:40.364Z,776
2018-05-06T12:06:40.471Z,705
2018-05-06T12:07:41.191Z,626
2018-05-06T12:08:41.286Z,634
2018-05-06T12:09:41.692Z,638
2018-05-06T12:11:02.940Z,655
2018-05-06T12:12:02.929Z,722
2018-05-06T12:13:03.384Z,742
2018-05-06T12:14:03.593Z,663
2018-05-06T12:15:03.922Z,652
2018-05-06T12:16:03.902Z,707
2018-05-06T12:17:03.521Z,713
2018-05-06T12:18:03.816Z,674
2018-05-06T12:19:03.442Z,675
2018-05-06T12:20:04.018Z,682
2018-05-06T12:21:24.874Z,715
2018-05-06T12:22:25.194Z,722
2018-05-06T12:23:26.538Z,747
2018-05-06T12:24:25.560Z,752
2018-05-06T12:25:24.979Z,767
2018-05-06T12:26:47.370Z,745
2018-05-06T12:27:47.950Z,752
2018-05-06T12:28:47.407Z,767
2018-05-06T12:29:47.740Z,754
2018-05-06T12:32:33.125Z,590
2018-05-06T12:33:33.595Z,572
2018-05-06T12:34:34.093Z,640
2018-05-06T12:35:33.767Z,649
2018-05-06T12:36:33.550Z,630
2018-05-06T12:37:33.617Z,655
2018-05-06T12:38:34.082Z,695
2018-05-06T12:39:55.577Z,738
2018-05-06T12:40:55.115Z,750
2018-05-06T12:42:17.607Z,689
2018-05-06T12:43:18.178Z,700
2018-05-06T12:44:18.393Z,665
2018-05-06T12:45:18.420Z,600
2018-05-06T12:46:18.148Z,565
2018-05-06T12:47:18.601Z,591
2018-05-06T12:48:17.801Z,651
2018-05-06T12:49:38.904Z,687
2018-05-06T12:50:39.018Z,686
2018-05-06T12:51:39.909Z,663
2018-05-06T12:52:39.306Z,632
2018-05-06T12:53:39.461Z,635
2018-05-06T12:54:40.427Z,616
2018-05-06T12:55:39.967Z,599
2018-05-06T12:56:39.799Z,671
2018-05-06T12:58:00.717Z,664
2018-05-06T12:59:01.895Z,585
2018-05-06T13:00:23.113Z,500
2018-05-06T13:01:23.800Z,463
2018-05-06T13:02:23.305Z,641
2018-05-06T13:03:23.368Z,795
2018-05-06T13:04:23.528Z,710
2018-05-06T13:05:24.726Z,608
2018-05-06T13:06:24.291Z,481
2018-05-06T13:07:23.624Z,459
2018-05-06T13:08:23.487Z,510
2018-05-06T13:09:24.278Z,566
2018-05-06T13:10:23.752Z,609
2018-05-06T13:11:22.863Z,593
2018-05-06T13:12:23.314Z,602
2018-05-06T13:13:23.205Z,653
2018-05-06T13:14:23.423Z,679
2018-05-06T13:16:02.880Z,634
2018-05-06T13:17:02.808Z,600
2018-05-06T13:18:24.216Z,622
2018-05-06T13:19:24.155Z,619
2018-05-06T13:20:45.500Z,576
2018-05-06T13:21:45.758Z,592
2018-05-06T13:22:46.803Z,632
2018-05-06T13:23:45.998Z,630
2018-05-06T13:24:45.855Z,625
2018-05-06T13:26:06.720Z,604
2018-05-06T13:27:08.349Z,613
2018-05-06T13:28:49.203Z,577
2018-05-06T13:30:30.849Z,563
2018-05-06T13:31:30.876Z,571
2018-05-06T13:32:30.785Z,560
2018-05-06T13:33:30.788Z,574
2018-05-06T13:34:30.685Z,581
2018-05-06T13:35:30.798Z,582
2018-05-06T13:36:31.053Z,591
2018-05-06T13:37:32.572Z,587
2018-05-06T13:38:53.102Z,546
2018-05-06T13:39:53.660Z,534
2018-05-06T13:40:52.673Z,536
2018-05-06T13:41:53.001Z,559
2018-05-06T13:42:53.154Z,577
2018-05-06T13:43:53.264Z,554
2018-05-06T13:45:14.660Z,559
2018-05-06T13:46:14.070Z,569
2018-05-06T13:47:14.258Z,556
2018-05-06T13:48:13.927Z,551
2018-05-06T13:49:13.748Z,561
2018-05-06T13:50:14.091Z,571
2018-05-06T13:51:13.128Z,527
2018-05-06T13:52:35.020Z,504
2018-05-06T13:54:17.040Z,541
2018-05-06T13:55:18.093Z,478
2018-05-06T13:56:39.209Z,467
2018-05-06T13:57:39.152Z,512
2018-05-06T13:58:39.071Z,519
2018-05-06T13:59:40.311Z,536
2018-05-06T14:01:21.428Z,513
2018-05-06T14:02:21.601Z,498
2018-05-06T14:03:22.680Z,507
2018-05-06T14:04:21.512Z,511
2018-05-06T14:05:22.193Z,506
2018-05-06T14:06:43.746Z,505
2018-05-06T14:07:44.181Z,512
2018-05-06T14:08:44.155Z,535
2018-05-06T14:09:44.388Z,529
2018-05-06T14:12:00.550Z,475
2018-05-06T14:13:05.998Z,464
2018-05-06T14:14:14.723Z,475
2018-05-06T14:15:00.111Z,462
2018-05-06T14:15:59.301Z,438
2018-05-06T14:17:00.581Z,430
2018-05-06T14:18:20.814Z,423
2018-05-06T14:19:21.924Z,407
2018-05-06T14:20:21.295Z,455
2018-05-06T14:21:42.695Z,504
2018-05-06T14:23:25.408Z,503
2018-05-06T14:24:25.626Z,515
2018-05-06T14:25:25.590Z,500
2018-05-06T14:26:25.498Z,480
2018-05-06T14:27:25.800Z,485
2018-05-06T14:28:25.604Z,489
2018-05-06T14:29:25.450Z,491
2018-05-06T14:31:06.998Z,496
2018-05-06T14:32:08.287Z,476
2018-05-06T14:33:34.519Z,466
2018-05-06T14:34:35.695Z,455
2018-05-06T14:35:35.594Z,446
2018-05-06T14:36:34.558Z,454
2018-05-06T14:37:34.775Z,458
2018-05-06T14:38:55.496Z,451
2018-05-06T14:39:56.353Z,431
2018-05-06T14:40:56.385Z,414
2018-05-06T14:41:56.707Z,420
2018-05-06T14:42:57.275Z,448
2018-05-06T14:43:56.079Z,433
2018-05-06T14:44:56.287Z,421
2018-05-06T14:45:56.365Z,416
2018-05-06T14:46:56.528Z,408
2018-05-06T14:47:55.552Z,423
2018-05-06T14:48:56.733Z,412
2018-05-06T14:49:56.425Z,397
2018-05-06T14:50:56.897Z,385
2018-05-06T14:51:56.409Z,388
2018-05-06T14:52:55.865Z,401
2018-05-06T14:54:17.750Z,405
2018-05-06T14:55:17.673Z,387